createdAt,value
2022-09-22T00:00:10.898Z,4.86
2022-09-22T00:01:13.489Z,4.63
2022-09-22T00:02:16.373Z,4.16
2022-09-22T00:03:18.877Z,4.57
2022-09-22T00:04:21.318Z,4.79
2022-09-22T00:05:23.796Z,4.73
2022-09-22T00:06:26.419Z,5.07
2022-09-22T00:07:28.860Z,5.38
2022-09-22T00:08:31.324Z,5.35
2022-09-22T00:09:33.798Z,5.30
2022-09-22T00:10:36.334Z,5.76
2022-09-22T00:11:38.818Z,5.05
2022-09-22T00:12:41.247Z,5.19
2022-09-22T00:13:43.710Z,5.07
2022-09-22T00:14:46.455Z,5.72
2022-09-22T00:15:48.887Z,5.13
2022-09-22T00:16:51.463Z,4.83
2022-09-22T00:17:53.934Z,4.65
2022-09-22T00:18:56.413Z,5.29
2022-09-22T00:19:58.846Z,5.03
2022-09-22T00:21:01.582Z,4.76
2022-09-22T00:22:04.087Z,4.55
2022-09-22T00:23:06.583Z,4.20
2022-09-22T00:24:09.047Z,4.96
2022-09-22T00:25:11.481Z,4.87
2022-09-22T00:26:14.221Z,5.09
2022-09-22T00:27:16.827Z,4.41
2022-09-22T00:28:19.335Z,4.14
2022-09-22T00:29:21.792Z,4.90
2022-09-22T00:30:24.329Z,4.47
2022-09-22T00:31:26.782Z,6.01
2022-09-22T00:32:29.287Z,5.31
2022-09-22T00:33:31.728Z,4.88
2022-09-22T00:34:34.166Z,4.28
2022-09-22T00:35:36.596Z,3.87
2022-09-22T00:36:39.163Z,4.25
2022-09-22T00:37:41.623Z,4.15
2022-09-22T00:38:44.080Z,3.61
2022-09-22T00:39:46.512Z,4.17
2022-09-22T00:40:49.156Z,2.96
2022-09-22T00:41:51.904Z,3.44
2022-09-22T00:42:54.427Z,3.40
2022-09-22T00:43:56.866Z,3.91
2022-09-22T00:44:59.314Z,3.14
2022-09-22T00:46:01.761Z,3.65
2022-09-22T00:47:04.290Z,3.07
2022-09-22T00:48:06.981Z,3.33
2022-09-22T00:49:09.424Z,3.39
2022-09-22T00:50:12.271Z,3.01
2022-09-22T00:51:14.921Z,3.49
2022-09-22T00:52:17.367Z,3.64
2022-09-22T00:53:19.840Z,3.95
2022-09-22T00:54:22.282Z,3.37
2022-09-22T00:55:24.720Z,3.21
2022-09-22T00:56:27.401Z,4.86
2022-09-22T00:57:29.872Z,5.61
2022-09-22T00:58:32.340Z,4.81
2022-09-22T00:59:34.804Z,5.43
2022-09-22T01:00:37.510Z,5.55
2022-09-22T01:01:40.185Z,6.21
2022-09-22T01:02:42.789Z,6.89
2022-09-22T01:03:45.324Z,9.05
2022-09-22T01:04:47.769Z,8.30
2022-09-22T01:05:50.215Z,7.08
2022-09-22T01:06:52.874Z,7.35
2022-09-22T01:07:55.322Z,7.55
2022-09-22T01:08:57.784Z,8.19
2022-09-22T01:10:00.237Z,7.86
2022-09-22T01:11:02.670Z,7.83
2022-09-22T01:12:05.144Z,8.33
2022-09-22T01:13:07.614Z,8.14
2022-09-22T01:14:10.088Z,7.85
2022-09-22T01:15:12.533Z,6.85
2022-09-22T01:16:15.859Z,8.68
2022-09-22T01:17:18.332Z,7.39
2022-09-22T01:18:20.775Z,7.46
2022-09-22T01:19:23.260Z,7.26
2022-09-22T01:20:25.988Z,7.88
2022-09-22T01:21:28.637Z,8.31
2022-09-22T01:22:31.108Z,6.57
2022-09-22T01:23:33.549Z,6.73
2022-09-22T01:24:36.026Z,6.70
2022-09-22T01:25:38.468Z,6.39
2022-09-22T01:26:41.113Z,6.54
2022-09-22T01:27:43.559Z,7.14
2022-09-22T01:28:46.015Z,6.36
2022-09-22T01:29:48.514Z,6.17
2022-09-22T01:30:51.376Z,6.69
2022-09-22T01:31:53.963Z,6.73
2022-09-22T01:32:56.512Z,7.61
2022-09-22T01:33:58.952Z,7.34
2022-09-22T01:35:01.951Z,6.62
2022-09-22T01:36:04.489Z,6.87
2022-09-22T01:37:06.969Z,6.49
2022-09-22T01:38:09.471Z,7.32
2022-09-22T01:39:11.914Z,6.60
2022-09-22T01:40:15.304Z,5.74
2022-09-22T01:41:17.813Z,5.91
2022-09-22T01:42:20.249Z,6.29
2022-09-22T01:43:22.709Z,6.19
2022-09-22T01:44:25.148Z,5.51
2022-09-22T01:45:27.642Z,5.80
2022-09-22T01:46:30.379Z,6.01
2022-09-22T01:47:32.861Z,7.20
2022-09-22T01:48:35.323Z,5.13
2022-09-22T01:49:37.763Z,5.14
2022-09-22T01:50:40.439Z,7.36
2022-09-22T01:51:43.241Z,7.03
2022-09-22T01:52:45.711Z,5.45
2022-09-22T01:53:48.179Z,5.70
2022-09-22T01:54:50.640Z,4.91
2022-09-22T01:55:53.162Z,6.75
2022-09-22T01:56:55.758Z,5.69
2022-09-22T01:57:58.331Z,5.85
2022-09-22T01:59:00.762Z,5.30
2022-09-22T02:00:03.414Z,5.70
2022-09-22T02:01:07.959Z,6.33
2022-09-22T02:02:10.513Z,5.89
2022-09-22T02:03:13.307Z,5.56
2022-09-22T02:04:15.749Z,4.27
2022-09-22T02:05:18.225Z,4.39
2022-09-22T02:06:21.011Z,4.56
2022-09-22T02:07:23.451Z,4.47
2022-09-22T02:08:25.895Z,4.38
2022-09-22T02:09:28.453Z,4.59
2022-09-22T02:10:31.222Z,4.85
2022-09-22T02:11:33.735Z,5.11
2022-09-22T02:12:36.150Z,5.42
2022-09-22T02:13:38.590Z,5.61
2022-09-22T02:14:41.034Z,5.23
2022-09-22T02:15:43.577Z,5.26
2022-09-22T02:16:46.555Z,5.18
2022-09-22T02:17:49.080Z,5.80
2022-09-22T02:18:51.527Z,5.59
2022-09-22T02:19:53.968Z,5.79
2022-09-22T02:20:56.541Z,5.00
2022-09-22T02:21:59.014Z,4.95
2022-09-22T02:23:01.451Z,4.45
2022-09-22T02:24:03.898Z,4.91
2022-09-22T02:25:06.349Z,4.85
2022-09-22T02:26:09.290Z,4.39
2022-09-22T02:27:11.774Z,4.99
2022-09-22T02:28:14.221Z,4.62
2022-09-22T02:29:16.676Z,4.22
2022-09-22T02:30:19.641Z,4.03
2022-09-22T02:31:22.158Z,4.67
2022-09-22T02:32:25.024Z,5.19
2022-09-22T02:33:27.462Z,4.29
2022-09-22T02:34:29.904Z,4.08
2022-09-22T02:35:32.345Z,4.05
2022-09-22T02:36:34.996Z,4.21
2022-09-22T02:37:37.474Z,4.22
2022-09-22T02:38:40.016Z,3.68
2022-09-22T02:39:42.458Z,3.69
2022-09-22T02:40:45.204Z,4.15
2022-09-22T02:41:47.746Z,4.16
2022-09-22T02:42:50.236Z,4.34
2022-09-22T02:43:52.675Z,3.65
2022-09-22T02:44:55.120Z,4.37
2022-09-22T02:45:57.909Z,4.54
2022-09-22T02:47:00.516Z,5.49
2022-09-22T02:48:03.014Z,6.39
2022-09-22T02:49:05.456Z,5.57
2022-09-22T02:50:08.511Z,5.19
2022-09-22T02:51:10.989Z,4.40
2022-09-22T02:52:13.447Z,4.13
2022-09-22T02:53:15.918Z,4.22
2022-09-22T02:54:18.391Z,3.82
2022-09-22T02:55:20.831Z,3.99
2022-09-22T02:56:23.606Z,3.19
2022-09-22T02:57:26.044Z,4.17
2022-09-22T02:58:28.520Z,4.60
2022-09-22T02:59:30.968Z,4.09
2022-09-22T03:00:33.605Z,3.88
2022-09-22T03:01:36.474Z,3.77
2022-09-22T03:02:39.051Z,3.72
2022-09-22T03:03:41.895Z,4.88
2022-09-22T03:04:44.411Z,4.87
2022-09-22T03:05:46.907Z,4.83
2022-09-22T03:06:49.503Z,4.39
2022-09-22T03:07:51.965Z,3.21
2022-09-22T03:08:54.465Z,3.16
2022-09-22T03:09:56.896Z,4.33
2022-09-22T03:10:59.451Z,3.85
2022-09-22T03:12:01.916Z,5.63
2022-09-22T03:13:19.696Z,4.38
2022-09-22T03:14:08.877Z,3.71
2022-09-22T03:15:11.647Z,3.76
2022-09-22T03:16:14.677Z,3.98
2022-09-22T03:17:17.174Z,3.95
2022-09-22T03:18:19.610Z,4.11
2022-09-22T03:19:22.090Z,3.97
2022-09-22T03:20:24.976Z,4.41
2022-09-22T03:21:27.631Z,3.99
2022-09-22T03:22:30.109Z,11.57
2022-09-22T03:23:32.559Z,8.33
2022-09-22T03:24:35.056Z,8.05
2022-09-22T03:25:37.505Z,13.83
2022-09-22T03:26:40.055Z,11.10
2022-09-22T03:27:42.504Z,4.53
2022-09-22T03:28:44.930Z,4.45
2022-09-22T03:29:47.399Z,3.96
2022-09-22T03:30:50.200Z,3.55
2022-09-22T03:31:52.803Z,3.61
2022-09-22T03:32:55.245Z,4.39
2022-09-22T03:33:57.679Z,4.00
2022-09-22T03:35:00.145Z,4.93
2022-09-22T03:36:03.158Z,4.18
2022-09-22T03:37:05.751Z,4.37
2022-09-22T03:38:08.266Z,4.38
2022-09-22T03:39:10.709Z,5.44
2022-09-22T03:40:14.052Z,3.38
2022-09-22T03:41:17.244Z,3.79
2022-09-22T03:42:19.787Z,2.73
2022-09-22T03:43:22.225Z,3.22
2022-09-22T03:44:24.682Z,2.96
2022-09-22T03:45:27.156Z,3.84
2022-09-22T03:46:29.962Z,3.23
2022-09-22T03:47:32.538Z,3.18
2022-09-22T03:48:35.298Z,3.42
2022-09-22T03:49:37.746Z,4.01
2022-09-22T03:50:40.311Z,3.57
2022-09-22T03:51:42.758Z,4.25
2022-09-22T03:52:45.227Z,3.97
2022-09-22T03:53:47.644Z,4.33
2022-09-22T03:54:50.109Z,4.54
2022-09-22T03:55:52.577Z,4.51
2022-09-22T03:56:55.315Z,5.45
2022-09-22T03:57:57.954Z,6.27
2022-09-22T03:59:00.402Z,5.15
2022-09-22T04:00:03.034Z,4.83
2022-09-22T04:01:05.540Z,4.48
2022-09-22T04:02:08.101Z,3.49
2022-09-22T04:03:10.653Z,4.08
2022-09-22T04:04:13.109Z,3.99
2022-09-22T04:05:15.744Z,3.75
2022-09-22T04:06:18.424Z,4.05
2022-09-22T04:07:20.869Z,3.83
2022-09-22T04:08:23.299Z,3.74
2022-09-22T04:09:25.738Z,3.71
2022-09-22T04:10:28.176Z,3.59
2022-09-22T04:11:30.647Z,4.32
2022-09-22T04:12:33.090Z,4.17
2022-09-22T04:13:35.541Z,4.06
2022-09-22T04:14:38.018Z,4.10
2022-09-22T04:15:40.462Z,3.67
2022-09-22T04:16:43.127Z,4.33
2022-09-22T04:17:45.675Z,3.73
2022-09-22T04:18:48.114Z,4.05
2022-09-22T04:19:50.563Z,3.77
2022-09-22T04:20:53.443Z,3.91
2022-09-22T04:21:57.315Z,4.47
2022-09-22T04:23:00.577Z,4.15
2022-09-22T04:24:03.025Z,3.77
2022-09-22T04:25:05.456Z,4.06
2022-09-22T04:26:08.198Z,4.69
2022-09-22T04:27:25.905Z,5.85
2022-09-22T04:28:15.013Z,4.76
2022-09-22T04:29:17.448Z,5.68
2022-09-22T04:30:20.077Z,5.07
2022-09-22T04:31:22.539Z,5.79
2022-09-22T04:32:25.249Z,6.50
2022-09-22T04:33:27.708Z,7.38
2022-09-22T04:34:30.194Z,8.35
2022-09-22T04:35:32.638Z,8.13
2022-09-22T04:36:35.174Z,6.89
2022-09-22T04:37:37.705Z,7.33
2022-09-22T04:38:40.161Z,7.45
2022-09-22T04:39:42.719Z,7.84
2022-09-22T04:40:45.276Z,8.57
2022-09-22T04:41:47.728Z,8.51
2022-09-22T04:42:50.454Z,7.09
2022-09-22T04:43:52.885Z,7.93
2022-09-22T04:44:55.426Z,8.13
2022-09-22T04:45:57.975Z,6.51
2022-09-22T04:47:00.690Z,5.52
2022-09-22T04:48:03.155Z,5.28
2022-09-22T04:49:05.616Z,4.96
2022-09-22T04:50:08.411Z,5.33
2022-09-22T04:51:10.906Z,4.23
2022-09-22T04:52:13.340Z,4.53
2022-09-22T04:53:15.847Z,3.79
2022-09-22T04:54:18.281Z,3.66
2022-09-22T04:55:20.730Z,3.83
2022-09-22T04:56:23.582Z,3.86
2022-09-22T04:57:26.028Z,3.41
2022-09-22T04:58:28.493Z,4.07
2022-09-22T04:59:30.929Z,2.91
2022-09-22T05:00:33.367Z,3.63
2022-09-22T05:01:35.879Z,3.02
2022-09-22T05:02:38.537Z,3.79
2022-09-22T05:03:41.054Z,3.29
2022-09-22T05:04:43.601Z,3.87
2022-09-22T05:05:46.057Z,3.73
2022-09-22T05:06:48.598Z,3.31
2022-09-22T05:07:51.345Z,3.34
2022-09-22T05:08:53.858Z,3.34
2022-09-22T05:09:56.306Z,4.18
2022-09-22T05:10:59.001Z,3.38
2022-09-22T05:12:01.503Z,3.11
2022-09-22T05:13:04.249Z,3.34
2022-09-22T05:14:06.711Z,3.23
2022-09-22T05:15:09.356Z,3.23
2022-09-22T05:16:13.698Z,3.64
2022-09-22T05:17:16.189Z,3.81
2022-09-22T05:18:18.627Z,3.33
2022-09-22T05:19:21.155Z,5.64
2022-09-22T05:20:23.930Z,3.53
2022-09-22T05:21:26.588Z,3.35
2022-09-22T05:22:29.395Z,3.45
2022-09-22T05:23:31.839Z,3.17
2022-09-22T05:24:34.314Z,3.44
2022-09-22T05:25:36.786Z,3.87
2022-09-22T05:26:39.323Z,3.46
2022-09-22T05:27:41.967Z,3.57
2022-09-22T05:28:44.425Z,3.65
2022-09-22T05:29:46.917Z,3.57
2022-09-22T05:30:49.689Z,3.28
2022-09-22T05:31:52.184Z,2.84
2022-09-22T05:32:54.611Z,3.54
2022-09-22T05:33:57.130Z,4.26
2022-09-22T05:34:59.608Z,3.52
2022-09-22T05:36:02.051Z,3.79
2022-09-22T05:37:04.513Z,3.55
2022-09-22T05:38:07.102Z,3.65
2022-09-22T05:39:09.547Z,3.83
2022-09-22T05:40:12.335Z,3.57
2022-09-22T05:41:14.871Z,3.37
2022-09-22T05:42:17.337Z,3.97
2022-09-22T05:43:19.777Z,3.55
2022-09-22T05:44:22.272Z,3.83
2022-09-22T05:45:24.800Z,3.43
2022-09-22T05:46:27.619Z,3.67
2022-09-22T05:47:30.103Z,4.23
2022-09-22T05:48:32.547Z,4.09
2022-09-22T05:49:34.990Z,3.77
2022-09-22T05:50:37.701Z,3.73
2022-09-22T05:51:40.144Z,3.91
2022-09-22T05:52:42.599Z,4.41
2022-09-22T05:53:45.038Z,3.75
2022-09-22T05:54:47.481Z,3.80
2022-09-22T05:55:49.983Z,3.78
2022-09-22T05:56:52.437Z,4.07
2022-09-22T05:57:54.894Z,3.96
2022-09-22T05:58:57.340Z,3.59
2022-09-22T05:59:59.791Z,3.65
2022-09-22T06:01:02.356Z,4.27
2022-09-22T06:02:18.073Z,3.99
2022-09-22T06:03:09.358Z,3.85
2022-09-22T06:04:11.831Z,4.20
2022-09-22T06:05:17.361Z,3.95
2022-09-22T06:06:18.878Z,4.03
2022-09-22T06:07:21.352Z,4.38
2022-09-22T06:08:23.874Z,4.42
2022-09-22T06:09:26.363Z,3.75
2022-09-22T06:10:28.798Z,4.51
2022-09-22T06:11:31.280Z,4.68
2022-09-22T06:12:33.729Z,4.76
2022-09-22T06:13:36.170Z,4.53
2022-09-22T06:14:38.622Z,4.31
2022-09-22T06:15:41.067Z,4.13
2022-09-22T06:16:43.903Z,4.54
2022-09-22T06:17:46.409Z,4.45
2022-09-22T06:18:48.857Z,4.16
2022-09-22T06:19:51.296Z,3.93
2022-09-22T06:20:53.854Z,4.50
2022-09-22T06:21:56.351Z,3.74
2022-09-22T06:22:58.791Z,3.27
2022-09-22T06:24:01.246Z,3.72
2022-09-22T06:25:03.704Z,3.81
2022-09-22T06:26:06.866Z,3.72
2022-09-22T06:27:09.361Z,3.46
2022-09-22T06:28:11.845Z,3.62
2022-09-22T06:29:14.288Z,4.01
2022-09-22T06:30:17.851Z,3.52
2022-09-22T06:31:20.349Z,3.53
2022-09-22T06:32:22.900Z,4.35
2022-09-22T06:33:25.339Z,4.08
2022-09-22T06:34:27.784Z,3.56
2022-09-22T06:35:30.231Z,4.16
2022-09-22T06:36:32.978Z,3.93
2022-09-22T06:37:35.480Z,4.12
2022-09-22T06:38:37.923Z,4.24
2022-09-22T06:39:40.510Z,4.19
2022-09-22T06:40:43.423Z,4.06
2022-09-22T06:41:46.010Z,3.99
2022-09-22T06:42:48.490Z,4.15
2022-09-22T06:43:50.947Z,4.43
2022-09-22T06:44:53.421Z,3.50
2022-09-22T06:45:55.930Z,3.08
2022-09-22T06:46:58.716Z,3.39
2022-09-22T06:48:01.223Z,2.94
2022-09-22T06:49:03.725Z,3.08
2022-09-22T06:50:06.484Z,3.12
2022-09-22T06:51:11.840Z,3.11
2022-09-22T06:52:13.309Z,2.65
2022-09-22T06:53:15.926Z,2.74
2022-09-22T06:54:18.711Z,3.37
2022-09-22T06:55:21.983Z,3.33
2022-09-22T06:56:24.463Z,3.19
2022-09-22T06:57:26.934Z,2.89
2022-09-22T06:58:29.400Z,1.84
2022-09-22T06:59:31.851Z,2.28
2022-09-22T07:00:34.770Z,2.06
2022-09-22T07:01:37.832Z,2.18
2022-09-22T07:02:40.603Z,2.01
2022-09-22T07:03:43.126Z,1.48
2022-09-22T07:04:45.562Z,1.92
2022-09-22T07:05:48.108Z,2.49
2022-09-22T07:06:50.660Z,2.42
2022-09-22T07:07:53.113Z,3.04
2022-09-22T07:08:55.696Z,2.81
2022-09-22T07:09:58.344Z,2.57
2022-09-22T07:11:01.004Z,2.59
2022-09-22T07:12:03.442Z,2.23
2022-09-22T07:13:05.900Z,2.62
2022-09-22T07:14:08.536Z,2.67
2022-09-22T07:15:11.490Z,2.24
2022-09-22T07:16:14.779Z,2.22
2022-09-22T07:17:17.297Z,2.67
2022-09-22T07:18:19.743Z,2.46
2022-09-22T07:19:22.227Z,3.33
2022-09-22T07:20:24.779Z,2.63
2022-09-22T07:21:27.297Z,2.60
2022-09-22T07:22:30.178Z,2.76
2022-09-22T07:23:50.978Z,3.14
2022-09-22T07:24:53.524Z,2.27
2022-09-22T07:25:56.148Z,2.43
2022-09-22T07:26:58.919Z,2.70
2022-09-22T07:28:01.418Z,2.37
2022-09-22T07:29:03.985Z,2.71
2022-09-22T07:30:06.973Z,3.62
2022-09-22T07:31:09.451Z,3.17
2022-09-22T07:32:12.067Z,3.59
2022-09-22T07:33:14.687Z,2.07
2022-09-22T07:34:17.139Z,2.14
2022-09-22T07:35:19.662Z,2.17
2022-09-22T07:36:22.908Z,2.19
2022-09-22T07:37:25.397Z,1.83
2022-09-22T07:38:27.854Z,1.98
2022-09-22T07:39:30.303Z,2.34
2022-09-22T07:40:33.032Z,2.20
2022-09-22T07:41:35.529Z,1.87
2022-09-22T07:42:38.017Z,2.10
2022-09-22T07:43:40.833Z,1.99
2022-09-22T07:44:44.693Z,1.82
2022-09-22T07:45:47.649Z,1.15
2022-09-22T07:46:50.297Z,1.35
2022-09-22T07:47:52.972Z,1.23
2022-09-22T07:48:55.412Z,1.06
2022-09-22T07:49:57.863Z,1.37
2022-09-22T07:51:00.660Z,1.42
2022-09-22T07:52:03.250Z,1.05
2022-09-22T07:53:05.711Z,1.23
2022-09-22T07:54:08.197Z,1.12
2022-09-22T07:55:10.653Z,0.89
2022-09-22T07:56:13.342Z,1.07
2022-09-22T07:57:15.813Z,0.97
2022-09-22T07:58:18.265Z,1.01
2022-09-22T07:59:20.719Z,1.17
2022-09-22T08:00:23.497Z,1.79
2022-09-22T08:01:26.031Z,1.35
2022-09-22T08:02:28.514Z,1.23
2022-09-22T08:03:31.031Z,1.08
2022-09-22T08:04:33.504Z,1.09
2022-09-22T08:05:35.958Z,1.05
2022-09-22T08:06:38.809Z,0.88
2022-09-22T08:07:41.266Z,0.97
2022-09-22T08:08:43.730Z,1.27
2022-09-22T08:09:46.195Z,1.21
2022-09-22T08:10:48.848Z,1.29
2022-09-22T08:11:51.351Z,1.21
2022-09-22T08:12:53.812Z,1.13
2022-09-22T08:13:56.267Z,1.40
2022-09-22T08:14:58.744Z,1.47
2022-09-22T08:16:01.262Z,1.19
2022-09-22T08:17:04.033Z,1.35
2022-09-22T08:18:06.485Z,1.59
2022-09-22T08:19:08.999Z,1.29
2022-09-22T08:20:13.273Z,1.42
2022-09-22T08:21:16.173Z,1.69
2022-09-22T08:22:18.673Z,2.93
2022-09-22T08:23:21.135Z,1.95
2022-09-22T08:24:24.077Z,1.68
2022-09-22T08:25:26.855Z,1.69
2022-09-22T08:26:29.522Z,1.93
2022-09-22T08:27:32.051Z,1.62
2022-09-22T08:28:34.771Z,1.93
2022-09-22T08:29:37.247Z,1.76
2022-09-22T08:30:39.774Z,1.65
2022-09-22T08:31:42.299Z,1.71
2022-09-22T08:32:44.846Z,1.48
2022-09-22T08:33:47.318Z,1.44
2022-09-22T08:34:49.794Z,1.45
2022-09-22T08:35:52.297Z,1.63
2022-09-22T08:36:54.964Z,1.60
2022-09-22T08:37:57.458Z,1.22
2022-09-22T08:38:59.955Z,1.57
2022-09-22T08:40:03.054Z,1.40
2022-09-22T08:41:05.592Z,1.57
2022-09-22T08:42:08.336Z,1.55
2022-09-22T08:43:10.969Z,1.47
2022-09-22T08:44:13.444Z,1.30
2022-09-22T08:45:15.912Z,1.53
2022-09-22T08:46:18.791Z,1.79
2022-09-22T08:47:21.561Z,1.75
2022-09-22T08:48:24.075Z,1.56
2022-09-22T08:49:26.528Z,1.67
2022-09-22T08:50:29.091Z,1.73
2022-09-22T08:51:31.708Z,1.47
2022-09-22T08:52:34.185Z,1.76
2022-09-22T08:53:36.665Z,1.75
2022-09-22T08:54:39.157Z,1.39
2022-09-22T08:55:41.747Z,1.44
2022-09-22T08:56:44.521Z,1.23
2022-09-22T08:57:46.977Z,1.41
2022-09-22T08:58:49.494Z,2.01
2022-09-22T08:59:51.962Z,1.87
2022-09-22T09:00:54.833Z,2.06
2022-09-22T09:01:57.313Z,2.01
2022-09-22T09:02:59.899Z,2.13
2022-09-22T09:04:02.610Z,2.46
2022-09-22T09:05:05.218Z,1.91
2022-09-22T09:06:08.495Z,1.74
2022-09-22T09:07:10.955Z,1.77
2022-09-22T09:08:13.420Z,1.47
2022-09-22T09:09:15.920Z,1.97
2022-09-22T09:10:18.613Z,1.69
2022-09-22T09:11:21.091Z,1.81
2022-09-22T09:12:23.578Z,1.81
2022-09-22T09:13:26.049Z,2.01
2022-09-22T09:14:28.558Z,1.85
2022-09-22T09:15:31.015Z,2.31
2022-09-22T09:16:37.158Z,1.85
2022-09-22T09:17:38.075Z,1.80
2022-09-22T09:18:40.547Z,1.75
2022-09-22T09:19:43.033Z,1.54
2022-09-22T09:20:45.587Z,1.90
2022-09-22T09:21:48.041Z,1.60
2022-09-22T09:22:50.506Z,1.75
2022-09-22T09:26:01.943Z,1.79
2022-09-22T09:27:04.409Z,1.56
2022-09-22T09:28:06.936Z,1.72
2022-09-22T09:29:09.589Z,1.93
2022-09-22T09:30:13.011Z,1.50
2022-09-22T09:31:15.548Z,1.62
2022-09-22T09:32:18.052Z,2.47
2022-09-22T09:33:20.526Z,1.83
2022-09-22T09:34:22.981Z,1.91
2022-09-22T09:35:25.466Z,1.97
2022-09-22T09:36:28.337Z,1.80
2022-09-22T09:37:30.799Z,1.73
2022-09-22T09:38:33.246Z,1.57
2022-09-22T09:39:35.697Z,1.89
2022-09-22T09:40:38.534Z,1.83
2022-09-22T09:41:41.074Z,1.65
2022-09-22T09:42:43.536Z,1.71
2022-09-22T09:43:46.002Z,1.79
2022-09-22T09:44:48.469Z,1.70
2022-09-22T09:45:51.006Z,1.92
2022-09-22T09:46:53.466Z,1.58
2022-09-22T09:47:59.848Z,3.00
2022-09-22T09:49:01.255Z,2.14
2022-09-22T09:50:04.021Z,1.89
2022-09-22T09:51:06.551Z,2.13
2022-09-22T09:52:09.020Z,1.68
2022-09-22T09:53:11.501Z,1.83
2022-09-22T09:54:16.985Z,1.88
2022-09-22T09:55:18.344Z,1.69
2022-09-22T09:56:21.257Z,2.06
2022-09-22T09:57:27.698Z,2.19
2022-09-22T09:58:28.098Z,2.38
2022-09-22T09:59:30.574Z,2.85
2022-09-22T10:00:33.148Z,1.79
2022-09-22T10:01:35.798Z,2.49
2022-09-22T10:02:38.344Z,2.30
2022-09-22T10:03:41.302Z,2.50
2022-09-22T10:04:44.061Z,2.56
2022-09-22T10:05:46.530Z,2.46
2022-09-22T10:06:49.135Z,2.44
2022-09-22T10:07:51.597Z,2.57
2022-09-22T10:08:54.073Z,2.41
2022-09-22T10:09:56.639Z,2.23
2022-09-22T10:10:59.213Z,2.54
2022-09-22T10:12:01.718Z,2.01
2022-09-22T10:13:04.203Z,2.37
2022-09-22T10:14:06.681Z,1.98
2022-09-22T10:15:09.180Z,2.81
2022-09-22T10:16:12.620Z,2.83
2022-09-22T10:17:15.188Z,2.39
2022-09-22T10:18:17.659Z,2.59
2022-09-22T10:19:20.135Z,2.48
2022-09-22T10:20:22.890Z,2.24
2022-09-22T10:21:25.604Z,2.25
2022-09-22T10:22:28.248Z,1.91
2022-09-22T10:23:30.707Z,2.04
2022-09-22T10:24:33.228Z,2.61
2022-09-22T10:25:35.703Z,2.35
2022-09-22T10:26:38.269Z,2.19
2022-09-22T10:27:40.759Z,2.05
2022-09-22T10:28:43.286Z,2.27
2022-09-22T10:29:45.748Z,2.28
2022-09-22T10:30:48.441Z,1.87
2022-09-22T10:31:50.938Z,1.95
2022-09-22T10:32:53.443Z,2.26
2022-09-22T10:33:56.345Z,2.09
2022-09-22T10:34:58.807Z,2.27
2022-09-22T10:36:01.275Z,2.17
2022-09-22T10:37:03.745Z,2.04
2022-09-22T10:38:06.246Z,1.95
2022-09-22T10:39:08.785Z,2.48
2022-09-22T10:40:12.509Z,1.99
2022-09-22T10:41:15.726Z,1.74
2022-09-22T10:42:18.196Z,1.79
2022-09-22T10:43:20.711Z,1.99
2022-09-22T10:44:41.887Z,1.93
2022-09-22T10:45:27.811Z,1.64
2022-09-22T10:46:30.348Z,1.97
2022-09-22T10:47:32.903Z,1.83
2022-09-22T10:48:35.401Z,1.54
2022-09-22T10:49:37.870Z,1.21
2022-09-22T10:50:40.663Z,1.69
2022-09-22T10:51:43.170Z,1.72
2022-09-22T10:52:45.675Z,2.04
2022-09-22T10:53:48.204Z,2.52
2022-09-22T10:54:50.667Z,1.59
2022-09-22T10:55:53.128Z,1.66
2022-09-22T10:56:55.699Z,1.61
2022-09-22T10:57:58.291Z,1.78
2022-09-22T10:59:00.912Z,1.59
2022-09-22T11:00:03.380Z,1.73
2022-09-22T11:01:05.941Z,1.81
2022-09-22T11:02:08.609Z,1.70
2022-09-22T11:03:11.078Z,1.97
2022-09-22T11:04:13.649Z,1.48
2022-09-22T11:05:16.482Z,1.70
2022-09-22T11:06:19.144Z,1.78
2022-09-22T11:07:21.602Z,1.59
2022-09-22T11:08:24.443Z,1.95
2022-09-22T11:09:27.094Z,1.84
2022-09-22T11:10:29.862Z,1.81
2022-09-22T11:11:33.617Z,1.81
2022-09-22T11:12:36.704Z,2.05
2022-09-22T11:13:39.163Z,2.09
2022-09-22T11:14:42.033Z,1.74
2022-09-22T11:15:44.540Z,1.64
2022-09-22T11:16:47.387Z,1.56
2022-09-22T11:17:49.865Z,1.93
2022-09-22T11:18:52.329Z,1.51
2022-09-22T11:19:54.838Z,1.91
2022-09-22T11:20:57.743Z,1.84
2022-09-22T11:22:00.215Z,1.60
2022-09-22T11:23:02.767Z,1.31
2022-09-22T11:24:05.230Z,1.86
2022-09-22T11:25:07.729Z,1.82
2022-09-22T11:26:11.155Z,1.77
2022-09-22T11:27:13.629Z,1.68
2022-09-22T11:28:16.089Z,1.51
2022-09-22T11:29:18.563Z,1.83
2022-09-22T11:30:21.179Z,1.92
2022-09-22T11:31:23.645Z,1.45
2022-09-22T11:32:26.119Z,1.93
2022-09-22T11:33:28.632Z,1.95
2022-09-22T11:34:31.093Z,1.52
2022-09-22T11:35:33.703Z,1.92
2022-09-22T11:36:36.569Z,1.86
2022-09-22T11:37:39.045Z,1.61
2022-09-22T11:38:41.823Z,1.65
2022-09-22T11:39:44.293Z,1.77
2022-09-22T11:40:47.050Z,1.85
2022-09-22T11:41:49.859Z,1.80
2022-09-22T11:42:52.337Z,1.49
2022-09-22T11:43:57.102Z,1.53
2022-09-22T11:44:59.194Z,1.50
2022-09-22T11:46:01.724Z,1.37
2022-09-22T11:47:04.263Z,1.70
2022-09-22T11:48:06.720Z,2.49
2022-09-22T11:49:09.214Z,1.61
2022-09-22T11:50:12.791Z,1.48
2022-09-22T11:51:15.319Z,1.75
2022-09-22T11:52:17.829Z,1.66
2022-09-22T11:53:20.364Z,1.66
2022-09-22T11:54:22.832Z,1.57
2022-09-22T11:55:25.330Z,1.74
2022-09-22T11:56:27.991Z,1.72
2022-09-22T11:57:30.447Z,1.71
2022-09-22T11:58:32.935Z,1.93
2022-09-22T11:59:35.413Z,1.60
2022-09-22T12:00:38.255Z,1.46
2022-09-22T12:01:40.959Z,1.49
2022-09-22T12:02:43.540Z,1.70
2022-09-22T12:03:46.664Z,1.74
2022-09-22T12:04:49.259Z,1.64
2022-09-22T12:05:51.737Z,1.57
2022-09-22T12:06:54.642Z,1.74
2022-09-22T12:07:57.105Z,2.22
2022-09-22T12:08:59.571Z,2.24
2022-09-22T12:10:02.022Z,2.21
2022-09-22T12:11:04.841Z,2.08
2022-09-22T12:12:07.390Z,1.81
2022-09-22T12:13:09.851Z,1.95
2022-09-22T12:14:12.303Z,2.41
2022-09-22T12:15:14.752Z,2.13
2022-09-22T12:16:18.118Z,2.15
2022-09-22T12:17:22.945Z,2.57
2022-09-22T12:18:25.122Z,2.26
2022-09-22T12:19:27.575Z,2.24
2022-09-22T12:20:30.139Z,2.95
2022-09-22T12:21:32.585Z,2.55
2022-09-22T12:22:35.111Z,2.46
2022-09-22T12:23:37.570Z,2.64
2022-09-22T12:24:40.065Z,3.33
2022-09-22T12:25:48.741Z,2.91
2022-09-22T12:26:47.132Z,3.29
2022-09-22T12:27:49.620Z,2.99
2022-09-22T12:28:52.273Z,2.81
2022-09-22T12:29:54.721Z,2.09
2022-09-22T12:30:57.344Z,2.47
2022-09-22T12:31:59.960Z,2.03
2022-09-22T12:33:02.457Z,2.37
2022-09-22T12:34:04.982Z,2.01
2022-09-22T12:35:07.480Z,2.33
2022-09-22T12:36:10.547Z,2.11
2022-09-22T12:37:13.052Z,2.95
2022-09-22T12:38:15.598Z,1.97
2022-09-22T12:39:18.078Z,2.20
2022-09-22T12:40:20.962Z,2.10
2022-09-22T12:41:23.550Z,2.01
2022-09-22T12:42:26.206Z,2.23
2022-09-22T12:43:28.751Z,2.02
2022-09-22T12:44:31.208Z,2.41
2022-09-22T12:45:33.684Z,1.93
2022-09-22T12:46:36.256Z,2.73
2022-09-22T12:47:38.740Z,2.29
2022-09-22T12:48:41.241Z,2.15
2022-09-22T12:49:43.805Z,2.16
2022-09-22T12:50:46.425Z,2.02
2022-09-22T12:51:48.894Z,1.96
2022-09-22T12:52:51.356Z,2.17
2022-09-22T12:53:53.884Z,2.15
2022-09-22T12:54:56.355Z,1.79
2022-09-22T12:55:58.811Z,1.85
2022-09-22T12:57:01.533Z,2.42
2022-09-22T12:58:04.157Z,1.91
2022-09-22T12:59:06.763Z,1.90
2022-09-22T13:00:10.133Z,2.23
2022-09-22T13:01:12.649Z,2.11
2022-09-22T13:02:15.196Z,2.17
2022-09-22T13:03:17.813Z,2.05
2022-09-22T13:04:20.300Z,1.71
2022-09-22T13:05:22.880Z,2.08
2022-09-22T13:06:25.439Z,2.19
2022-09-22T13:07:27.895Z,2.19
2022-09-22T13:08:30.363Z,2.49
2022-09-22T13:09:32.908Z,2.81
2022-09-22T13:10:35.567Z,2.47
2022-09-22T13:11:38.099Z,2.55
2022-09-22T13:12:40.566Z,2.41
2022-09-22T13:13:43.022Z,2.67
2022-09-22T13:14:45.502Z,2.28
2022-09-22T13:15:47.965Z,2.27
2022-09-22T13:16:50.653Z,2.26
2022-09-22T13:17:53.303Z,3.01
2022-09-22T13:18:55.774Z,2.37
2022-09-22T13:19:58.281Z,3.06
2022-09-22T13:21:01.055Z,2.65
2022-09-22T13:22:03.555Z,2.69
2022-09-22T13:23:06.011Z,2.61
2022-09-22T13:24:08.476Z,3.09
2022-09-22T13:25:10.973Z,3.25
2022-09-22T13:26:14.048Z,3.21
2022-09-22T13:27:16.497Z,3.44
2022-09-22T13:28:19.016Z,4.00
2022-09-22T13:29:21.467Z,4.59
2022-09-22T13:30:24.503Z,5.86
2022-09-22T13:31:27.001Z,4.23
2022-09-22T13:32:29.459Z,4.33
2022-09-22T13:33:31.920Z,4.64
2022-09-22T13:34:34.384Z,4.95
2022-09-22T13:35:36.940Z,6.91
2022-09-22T13:36:39.816Z,7.71
2022-09-22T13:37:42.379Z,6.63
2022-09-22T13:38:44.843Z,5.41
2022-09-22T13:39:47.879Z,5.83
2022-09-22T13:40:51.031Z,6.92
2022-09-22T13:41:54.104Z,5.94
2022-09-22T13:42:56.557Z,6.21
2022-09-22T13:43:59.026Z,5.99
2022-09-22T13:45:01.490Z,5.53
2022-09-22T13:46:04.024Z,6.19
2022-09-22T13:47:06.620Z,4.74
2022-09-22T13:48:09.077Z,5.29
2022-09-22T13:49:11.544Z,4.99
2022-09-22T13:50:14.529Z,4.27
2022-09-22T13:51:17.024Z,5.37
2022-09-22T13:52:19.480Z,4.72
2022-09-22T13:53:21.944Z,3.69
2022-09-22T13:54:24.787Z,4.46
2022-09-22T13:55:27.244Z,3.25